Cassidy Curve, MT

4:32 PM MST on January 24, 2017 (GMT -0700)
Cut Bank Municipal | | Change Station

Elev 3855 ft 48.61 °N, 112.38 °W | Updated 36 minutes ago

Partly Cloudy
Partly Cloudy
28 °F
Feels Like 24 °F
N
4
Wind Variable Wind from North

Today
High -- | Low -- °F
--% Chance of Precip.
Yesterday
High -- | Low -- °F
Precip. -- in
Pressure 30.05 in
Visibility 10.0 miles
Clouds Overcast 8000 ft
Windchill 24 °F
Dew Point 19 °F
Humidity 69%
Rainfall 0.00 in
Snow Depth Not available.
8:13 AM 5:19 PM
Waning Crescent, 9% visible
METAR KCTB 242256Z AUTO 36003KT 10SM OVC080 M02/M07 A2989 RMK AO2 SLP176 T10221072
Pressure 30.05 in
Visibility 10.0 miles
Clouds Overcast 8000 ft
Windchill 24 °F
Dew Point 19 °F
Humidity 69%
Rainfall 0.00 in
Snow Depth Not available.
8:13 AM 5:19 PM
Waning Crescent, 9% visible
METAR KCTB 242256Z AUTO 36003KT 10SM OVC080 M02/M07 A2989 RMK AO2 SLP176 T10221072

Get Your Daily Forecast Email!

Thanks for signing up!

Be on the lookout for a verification email in your inbox.

You'll start receiving the daily forecast at 8 AM.

×

10-Day Weather Forecast

Almanac

Astronomy

Jan. 24, 2017 Rise Set
Actual Time
Civil Twilight
Nautical Twilight
Astronomical Twilight
Moon
Length of Visible Light
Length of Day
Tomorrow will be .
, % of the Moon is Illuminated

Today's Extremes

State Highs State Lows

Community

WunderPhotos

Upload Photos

1,962,540 photos uploaded!

WunderBlog® & News

Nearby

Air Quality

  Air Quality AQ Index Pollutant
Not available.

Snow Depth

Station Depth Elevation

Earthquake Activity

City Distance Mag. Time & Date
Minimum magnitude displayed is 2.5.

Coastal Water Temperatures

Place Temperature

Stations

Nearby Weather Stations

Station Location Temp. Windchill Dew Point Humidity Wind Precip. Elev Updated Type
                   

Watches & Warnings

There are currently no watches in effect.